sensor_id;sensor_type;location;lat;lon;timestamp;P1;durP1;ratioP1;P2;durP2;ratioP2
55025;SDS011;40925;45.666;18.994;2023-09-19T00:00:57;10.65;;;6.60;;
55025;SDS011;40925;45.666;18.994;2023-09-19T00:03:24;10.48;;;6.47;;
55025;SDS011;40925;45.666;18.994;2023-09-19T00:05:50;9.40;;;6.45;;
55025;SDS011;40925;45.666;18.994;2023-09-19T00:08:16;12.98;;;6.38;;
55025;SDS011;40925;45.666;18.994;2023-09-19T00:10:47;11.40;;;6.95;;
55025;SDS011;40925;45.666;18.994;2023-09-19T00:13:15;10.65;;;6.68;;
55025;SDS011;40925;45.666;18.994;2023-09-19T00:15:42;10.57;;;6.45;;
55025;SDS011;40925;45.666;18.994;2023-09-19T00:18:13;11.48;;;6.47;;
55025;SDS011;40925;45.666;18.994;2023-09-19T00:20:41;13.07;;;6.53;;
55025;SDS011;40925;45.666;18.994;2023-09-19T00:23:07;10.63;;;6.43;;
55025;SDS011;40925;45.666;18.994;2023-09-19T00:25:36;12.93;;;6.70;;
55025;SDS011;40925;45.666;18.994;2023-09-19T00:28:02;10.52;;;6.35;;
55025;SDS011;40925;45.666;18.994;2023-09-19T00:30:29;11.05;;;6.20;;
55025;SDS011;40925;45.666;18.994;2023-09-19T00:32:56;11.05;;;6.72;;
55025;SDS011;40925;45.666;18.994;2023-09-19T00:35:22;9.43;;;6.25;;
55025;SDS011;40925;45.666;18.994;2023-09-19T00:37:52;10.90;;;6.70;;
55025;SDS011;40925;45.666;18.994;2023-09-19T00:40:19;8.68;;;6.03;;
55025;SDS011;40925;45.666;18.994;2023-09-19T00:42:46;9.88;;;6.35;;
55025;SDS011;40925;45.666;18.994;2023-09-19T00:45:14;9.93;;;6.47;;
55025;SDS011;40925;45.666;18.994;2023-09-19T00:47:43;8.98;;;6.32;;
55025;SDS011;40925;45.666;18.994;2023-09-19T00:50:11;10.65;;;6.95;;
55025;SDS011;40925;45.666;18.994;2023-09-19T00:52:39;11.13;;;6.15;;
55025;SDS011;40925;45.666;18.994;2023-09-19T00:55:09;10.40;;;6.38;;
55025;SDS011;40925;45.666;18.994;2023-09-19T00:57:39;9.98;;;6.40;;
55025;SDS011;40925;45.666;18.994;2023-09-19T01:00:07;9.95;;;6.25;;
55025;SDS011;40925;45.666;18.994;2023-09-19T01:02:37;9.32;;;6.13;;
55025;SDS011;40925;45.666;18.994;2023-09-19T01:05:03;9.65;;;6.35;;
55025;SDS011;40925;45.666;18.994;2023-09-19T01:07:31;9.07;;;6.20;;
55025;SDS011;40925;45.666;18.994;2023-09-19T01:10:02;11.57;;;6.68;;
55025;SDS011;40925;45.666;18.994;2023-09-19T01:32:52;8.65;;;6.70;;
55025;SDS011;40925;45.666;18.994;2023-09-19T01:35:19;9.52;;;6.43;;
55025;SDS011;40925;45.666;18.994;2023-09-19T01:37:44;12.63;;;6.93;;
55025;SDS011;40925;45.666;18.994;2023-09-19T01:40:14;11.95;;;6.35;;
55025;SDS011;40925;45.666;18.994;2023-09-19T01:48:23;9.60;;;6.60;;
55025;SDS011;40925;45.666;18.994;2023-09-19T01:51:05;8.98;;;7.20;;
55025;SDS011;40925;45.666;18.994;2023-09-19T01:53:50;10.55;;;6.70;;
55025;SDS011;40925;45.666;18.994;2023-09-19T01:56:38;11.65;;;6.43;;
55025;SDS011;40925;45.666;18.994;2023-09-19T01:59:13;9.63;;;6.57;;
55025;SDS011;40925;45.666;18.994;2023-09-19T02:01:46;10.05;;;6.70;;
55025;SDS011;40925;45.666;18.994;2023-09-19T02:04:17;10.73;;;7.05;;
55025;SDS011;40925;45.666;18.994;2023-09-19T02:06:43;10.20;;;6.97;;
55025;SDS011;40925;45.666;18.994;2023-09-19T02:09:13;10.90;;;7.25;;
55025;SDS011;40925;45.666;18.994;2023-09-19T02:11:39;9.50;;;6.35;;
55025;SDS011;40925;45.666;18.994;2023-09-19T02:14:08;11.15;;;6.50;;
55025;SDS011;40925;45.666;18.994;2023-09-19T02:16:34;12.48;;;7.70;;
55025;SDS011;40925;45.666;18.994;2023-09-19T02:19:02;10.18;;;7.15;;
55025;SDS011;40925;45.666;18.994;2023-09-19T02:21:31;10.10;;;6.93;;
55025;SDS011;40925;45.666;18.994;2023-09-19T02:23:57;10.57;;;7.43;;
55025;SDS011;40925;45.666;18.994;2023-09-19T02:26:23;10.75;;;7.45;;
55025;SDS011;40925;45.666;18.994;2023-09-19T02:28:50;12.25;;;7.68;;
55025;SDS011;40925;45.666;18.994;2023-09-19T02:31:15;11.63;;;7.63;;
55025;SDS011;40925;45.666;18.994;2023-09-19T02:33:41;11.43;;;7.63;;
55025;SDS011;40925;45.666;18.994;2023-09-19T02:36:08;12.25;;;7.90;;
55025;SDS011;40925;45.666;18.994;2023-09-19T02:38:34;13.88;;;8.70;;
55025;SDS011;40925;45.666;18.994;2023-09-19T02:41:00;11.57;;;7.90;;
55025;SDS011;40925;45.666;18.994;2023-09-19T02:43:26;14.00;;;8.90;;
55025;SDS011;40925;45.666;18.994;2023-09-19T02:45:55;12.63;;;8.50;;
55025;SDS011;40925;45.666;18.994;2023-09-19T02:48:22;15.63;;;8.68;;
55025;SDS011;40925;45.666;18.994;2023-09-19T02:50:51;10.90;;;7.22;;
55025;SDS011;40925;45.666;18.994;2023-09-19T02:53:17;11.02;;;6.97;;
55025;SDS011;40925;45.666;18.994;2023-09-19T02:55:44;12.70;;;8.32;;
55025;SDS011;40925;45.666;18.994;2023-09-19T02:58:13;11.63;;;7.85;;
55025;SDS011;40925;45.666;18.994;2023-09-19T03:00:40;10.23;;;6.82;;
55025;SDS011;40925;45.666;18.994;2023-09-19T03:03:07;11.65;;;8.43;;
55025;SDS011;40925;45.666;18.994;2023-09-19T03:05:33;12.38;;;7.88;;
55025;SDS011;40925;45.666;18.994;2023-09-19T03:07:59;13.27;;;7.63;;
55025;SDS011;40925;45.666;18.994;2023-09-19T03:10:25;11.23;;;7.78;;
55025;SDS011;40925;45.666;18.994;2023-09-19T03:12:53;11.63;;;7.53;;
55025;SDS011;40925;45.666;18.994;2023-09-19T03:15:18;11.88;;;7.05;;
55025;SDS011;40925;45.666;18.994;2023-09-19T03:17:48;10.98;;;7.13;;
55025;SDS011;40925;45.666;18.994;2023-09-19T03:20:14;12.70;;;7.15;;
55025;SDS011;40925;45.666;18.994;2023-09-19T03:22:44;13.82;;;7.93;;
55025;SDS011;40925;45.666;18.994;2023-09-19T03:25:11;11.23;;;7.68;;
55025;SDS011;40925;45.666;18.994;2023-09-19T03:27:39;10.30;;;7.50;;
55025;SDS011;40925;45.666;18.994;2023-09-19T03:30:09;10.85;;;7.70;;
55025;SDS011;40925;45.666;18.994;2023-09-19T03:32:43;12.68;;;8.20;;
55025;SDS011;40925;45.666;18.994;2023-09-19T03:35:14;11.60;;;7.60;;
55025;SDS011;40925;45.666;18.994;2023-09-19T03:37:42;13.13;;;8.27;;
55025;SDS011;40925;45.666;18.994;2023-09-19T03:40:08;11.70;;;7.82;;
55025;SDS011;40925;45.666;18.994;2023-09-19T03:42:41;11.43;;;7.72;;
55025;SDS011;40925;45.666;18.994;2023-09-19T03:45:10;11.77;;;8.05;;
55025;SDS011;40925;45.666;18.994;2023-09-19T03:47:40;12.15;;;7.40;;
55025;SDS011;40925;45.666;18.994;2023-09-19T03:50:06;11.65;;;8.20;;
55025;SDS011;40925;45.666;18.994;2023-09-19T03:52:36;11.50;;;7.93;;
55025;SDS011;40925;45.666;18.994;2023-09-19T03:55:02;12.93;;;8.95;;
55025;SDS011;40925;45.666;18.994;2023-09-19T03:57:29;12.77;;;7.88;;
55025;SDS011;40925;45.666;18.994;2023-09-19T03:59:55;11.82;;;8.18;;
55025;SDS011;40925;45.666;18.994;2023-09-19T04:02:21;12.48;;;7.72;;
55025;SDS011;40925;45.666;18.994;2023-09-19T04:04:52;12.75;;;8.23;;
55025;SDS011;40925;45.666;18.994;2023-09-19T04:07:18;12.18;;;8.02;;
55025;SDS011;40925;45.666;18.994;2023-09-19T04:09:48;13.55;;;7.70;;
55025;SDS011;40925;45.666;18.994;2023-09-19T04:12:14;11.27;;;7.93;;
55025;SDS011;40925;45.666;18.994;2023-09-19T04:14:42;10.93;;;7.72;;
55025;SDS011;40925;45.666;18.994;2023-09-19T04:17:08;12.73;;;7.82;;
55025;SDS011;40925;45.666;18.994;2023-09-19T04:19:35;10.43;;;7.45;;
55025;SDS011;40925;45.666;18.994;2023-09-19T04:22:00;12.48;;;7.80;;
55025;SDS011;40925;45.666;18.994;2023-09-19T04:24:26;12.27;;;8.20;;
55025;SDS011;40925;45.666;18.994;2023-09-19T04:26:52;13.30;;;7.95;;
55025;SDS011;40925;45.666;18.994;2023-09-19T04:29:18;12.32;;;8.23;;
55025;SDS011;40925;45.666;18.994;2023-09-19T04:31:45;13.25;;;8.50;;
55025;SDS011;40925;45.666;18.994;2023-09-19T04:34:11;12.73;;;7.63;;
55025;SDS011;40925;45.666;18.994;2023-09-19T04:36:42;12.52;;;7.80;;
55025;SDS011;40925;45.666;18.994;2023-09-19T04:39:08;11.93;;;8.25;;
55025;SDS011;40925;45.666;18.994;2023-09-19T04:41:37;10.88;;;7.45;;
55025;SDS011;40925;45.666;18.994;2023-09-19T04:44:06;14.48;;;8.15;;
55025;SDS011;40925;45.666;18.994;2023-09-19T04:46:32;12.43;;;8.23;;
55025;SDS011;40925;45.666;18.994;2023-09-19T04:48:59;14.20;;;8.43;;
55025;SDS011;40925;45.666;18.994;2023-09-19T04:51:25;14.88;;;8.70;;
55025;SDS011;40925;45.666;18.994;2023-09-19T04:53:57;13.48;;;9.07;;
55025;SDS011;40925;45.666;18.994;2023-09-19T04:56:23;14.23;;;8.63;;
55025;SDS011;40925;45.666;18.994;2023-09-19T04:58:49;11.57;;;8.20;;
55025;SDS011;40925;45.666;18.994;2023-09-19T05:01:15;12.52;;;8.30;;
55025;SDS011;40925;45.666;18.994;2023-09-19T05:03:41;15.05;;;8.02;;
55025;SDS011;40925;45.666;18.994;2023-09-19T05:06:07;11.85;;;8.00;;
55025;SDS011;40925;45.666;18.994;2023-09-19T05:08:33;12.52;;;7.32;;
55025;SDS011;40925;45.666;18.994;2023-09-19T05:11:01;12.18;;;7.18;;
55025;SDS011;40925;45.666;18.994;2023-09-19T05:13:27;10.73;;;7.47;;
55025;SDS011;40925;45.666;18.994;2023-09-19T05:15:53;10.50;;;7.38;;
55025;SDS011;40925;45.666;18.994;2023-09-19T05:18:18;10.60;;;7.55;;
55025;SDS011;40925;45.666;18.994;2023-09-19T05:20:45;13.30;;;7.90;;
55025;SDS011;40925;45.666;18.994;2023-09-19T05:23:10;12.90;;;7.68;;
55025;SDS011;40925;45.666;18.994;2023-09-19T05:25:37;13.05;;;7.88;;
55025;SDS011;40925;45.666;18.994;2023-09-19T05:28:09;11.30;;;7.50;;
55025;SDS011;40925;45.666;18.994;2023-09-19T05:30:40;10.32;;;7.30;;
55025;SDS011;40925;45.666;18.994;2023-09-19T05:33:09;13.15;;;7.38;;
55025;SDS011;40925;45.666;18.994;2023-09-19T05:35:35;10.80;;;7.40;;
55025;SDS011;40925;45.666;18.994;2023-09-19T05:38:06;10.20;;;7.00;;
55025;SDS011;40925;45.666;18.994;2023-09-19T05:40:34;11.15;;;6.80;;
55025;SDS011;40925;45.666;18.994;2023-09-19T05:43:00;9.52;;;6.97;;
55025;SDS011;40925;45.666;18.994;2023-09-19T05:45:29;10.85;;;7.13;;
55025;SDS011;40925;45.666;18.994;2023-09-19T05:47:54;12.90;;;7.22;;
55025;SDS011;40925;45.666;18.994;2023-09-19T05:50:30;11.13;;;7.07;;
55025;SDS011;40925;45.666;18.994;2023-09-19T05:52:57;11.85;;;7.32;;
55025;SDS011;40925;45.666;18.994;2023-09-19T05:55:23;11.05;;;7.22;;
55025;SDS011;40925;45.666;18.994;2023-09-19T05:57:52;11.90;;;7.25;;
55025;SDS011;40925;45.666;18.994;2023-09-19T06:00:19;10.73;;;6.75;;
55025;SDS011;40925;45.666;18.994;2023-09-19T06:02:51;12.70;;;6.70;;
55025;SDS011;40925;45.666;18.994;2023-09-19T06:05:17;9.35;;;6.50;;
55025;SDS011;40925;45.666;18.994;2023-09-19T06:07:47;11.80;;;6.85;;
55025;SDS011;40925;45.666;18.994;2023-09-19T06:10:13;11.63;;;6.70;;
55025;SDS011;40925;45.666;18.994;2023-09-19T06:12:42;9.70;;;5.95;;
55025;SDS011;40925;45.666;18.994;2023-09-19T06:15:09;13.88;;;6.80;;
55025;SDS011;40925;45.666;18.994;2023-09-19T06:17:40;8.88;;;6.13;;
55025;SDS011;40925;45.666;18.994;2023-09-19T06:20:06;8.75;;;6.57;;
55025;SDS011;40925;45.666;18.994;2023-09-19T06:22:40;10.55;;;6.03;;
55025;SDS011;40925;45.666;18.994;2023-09-19T06:25:07;10.05;;;5.90;;
55025;SDS011;40925;45.666;18.994;2023-09-19T06:27:33;11.70;;;6.60;;
55025;SDS011;40925;45.666;18.994;2023-09-19T06:30:01;19.88;;;10.65;;
55025;SDS011;40925;45.666;18.994;2023-09-19T06:32:28;20.55;;;13.38;;
55025;SDS011;40925;45.666;18.994;2023-09-19T06:34:54;11.25;;;6.93;;
55025;SDS011;40925;45.666;18.994;2023-09-19T06:37:21;8.63;;;5.90;;
55025;SDS011;40925;45.666;18.994;2023-09-19T06:39:47;10.55;;;5.43;;
55025;SDS011;40925;45.666;18.994;2023-09-19T06:42:14;10.23;;;5.43;;
55025;SDS011;40925;45.666;18.994;2023-09-19T06:44:42;7.75;;;5.35;;
55025;SDS011;40925;45.666;18.994;2023-09-19T06:47:09;8.50;;;5.40;;
55025;SDS011;40925;45.666;18.994;2023-09-19T06:49:36;9.00;;;5.38;;
55025;SDS011;40925;45.666;18.994;2023-09-19T06:52:02;11.57;;;5.40;;
55025;SDS011;40925;45.666;18.994;2023-09-19T06:54:28;7.47;;;4.70;;
55025;SDS011;40925;45.666;18.994;2023-09-19T06:56:56;8.82;;;5.35;;
55025;SDS011;40925;45.666;18.994;2023-09-19T06:59:25;9.55;;;5.15;;
55025;SDS011;40925;45.666;18.994;2023-09-19T07:01:50;9.70;;;5.75;;
55025;SDS011;40925;45.666;18.994;2023-09-19T07:04:18;11.38;;;6.18;;
55025;SDS011;40925;45.666;18.994;2023-09-19T07:06:49;10.63;;;5.45;;
55025;SDS011;40925;45.666;18.994;2023-09-19T07:09:16;8.82;;;5.10;;
55025;SDS011;40925;45.666;18.994;2023-09-19T07:11:44;8.98;;;5.53;;
55025;SDS011;40925;45.666;18.994;2023-09-19T07:14:11;9.52;;;5.53;;
55025;SDS011;40925;45.666;18.994;2023-09-19T07:16:37;13.32;;;7.03;;
55025;SDS011;40925;45.666;18.994;2023-09-19T07:19:04;9.45;;;7.18;;
55025;SDS011;40925;45.666;18.994;2023-09-19T07:21:30;11.45;;;7.22;;
55025;SDS011;40925;45.666;18.994;2023-09-19T07:23:59;13.00;;;7.30;;
55025;SDS011;40925;45.666;18.994;2023-09-19T07:26:26;9.75;;;6.50;;
55025;SDS011;40925;45.666;18.994;2023-09-19T07:28:53;13.00;;;6.75;;
55025;SDS011;40925;45.666;18.994;2023-09-19T07:31:19;15.80;;;8.63;;
55025;SDS011;40925;45.666;18.994;2023-09-19T07:33:47;14.77;;;8.02;;
55025;SDS011;40925;45.666;18.994;2023-09-19T07:36:13;13.57;;;7.90;;
55025;SDS011;40925;45.666;18.994;2023-09-19T07:38:40;14.98;;;7.63;;
55025;SDS011;40925;45.666;18.994;2023-09-19T07:41:06;10.18;;;6.85;;
55025;SDS011;40925;45.666;18.994;2023-09-19T07:43:34;10.10;;;5.78;;
55025;SDS011;40925;45.666;18.994;2023-09-19T07:46:07;14.02;;;6.35;;
55025;SDS011;40925;45.666;18.994;2023-09-19T07:48:36;10.57;;;5.80;;
55025;SDS011;40925;45.666;18.994;2023-09-19T07:51:09;13.15;;;5.22;;
55025;SDS011;40925;45.666;18.994;2023-09-19T07:53:35;12.15;;;5.40;;
55025;SDS011;40925;45.666;18.994;2023-09-19T07:56:03;8.80;;;5.00;;
55025;SDS011;40925;45.666;18.994;2023-09-19T07:58:30;10.85;;;5.13;;
55025;SDS011;40925;45.666;18.994;2023-09-19T08:00:56;14.02;;;5.95;;
55025;SDS011;40925;45.666;18.994;2023-09-19T08:03:22;10.18;;;5.68;;
55025;SDS011;40925;45.666;18.994;2023-09-19T08:05:48;10.02;;;5.40;;
55025;SDS011;40925;45.666;18.994;2023-09-19T08:08:15;9.00;;;5.07;;
55025;SDS011;40925;45.666;18.994;2023-09-19T08:10:41;13.35;;;5.25;;
55025;SDS011;40925;45.666;18.994;2023-09-19T08:13:09;9.25;;;5.10;;
55025;SDS011;40925;45.666;18.994;2023-09-19T08:15:42;13.30;;;5.22;;
55025;SDS011;40925;45.666;18.994;2023-09-19T08:18:09;12.10;;;4.97;;
55025;SDS011;40925;45.666;18.994;2023-09-19T08:20:38;10.23;;;5.53;;
55025;SDS011;40925;45.666;18.994;2023-09-19T08:23:03;12.32;;;5.53;;
55025;SDS011;40925;45.666;18.994;2023-09-19T08:25:31;11.02;;;6.13;;
55025;SDS011;40925;45.666;18.994;2023-09-19T08:27:57;13.73;;;6.55;;
55025;SDS011;40925;45.666;18.994;2023-09-19T08:30:25;15.60;;;6.88;;
55025;SDS011;40925;45.666;18.994;2023-09-19T08:32:58;10.73;;;5.90;;
55025;SDS011;40925;45.666;18.994;2023-09-19T08:35:24;9.20;;;6.90;;
55025;SDS011;40925;45.666;18.994;2023-09-19T08:37:53;11.38;;;6.50;;
55025;SDS011;40925;45.666;18.994;2023-09-19T08:40:20;14.75;;;6.43;;
55025;SDS011;40925;45.666;18.994;2023-09-19T08:42:50;11.57;;;6.60;;
55025;SDS011;40925;45.666;18.994;2023-09-19T08:45:17;10.95;;;6.50;;
55025;SDS011;40925;45.666;18.994;2023-09-19T08:48:25;13.73;;;5.95;;
55025;SDS011;40925;45.666;18.994;2023-09-19T08:50:55;10.40;;;4.07;;
55025;SDS011;40925;45.666;18.994;2023-09-19T08:53:27;11.32;;;3.53;;
55025;SDS011;40925;45.666;18.994;2023-09-19T08:56:03;6.22;;;3.03;;
55025;SDS011;40925;45.666;18.994;2023-09-19T08:58:43;9.88;;;2.75;;
55025;SDS011;40925;45.666;18.994;2023-09-19T09:01:14;4.63;;;2.88;;
55025;SDS011;40925;45.666;18.994;2023-09-19T09:03:41;8.45;;;2.90;;
55025;SDS011;40925;45.666;18.994;2023-09-19T09:06:13;4.10;;;1.95;;
55025;SDS011;40925;45.666;18.994;2023-09-19T09:08:44;6.70;;;1.90;;
55025;SDS011;40925;45.666;18.994;2023-09-19T09:11:10;3.67;;;1.42;;
55025;SDS011;40925;45.666;18.994;2023-09-19T09:13:37;2.13;;;1.10;;
55025;SDS011;40925;45.666;18.994;2023-09-19T09:16:04;4.25;;;1.40;;
55025;SDS011;40925;45.666;18.994;2023-09-19T09:18:30;2.00;;;1.17;;
55025;SDS011;40925;45.666;18.994;2023-09-19T09:20:56;3.47;;;1.55;;
55025;SDS011;40925;45.666;18.994;2023-09-19T09:23:21;1.92;;;0.90;;
55025;SDS011;40925;45.666;18.994;2023-09-19T09:25:47;3.92;;;1.20;;
55025;SDS011;40925;45.666;18.994;2023-09-19T09:28:24;4.65;;;1.17;;
55025;SDS011;40925;45.666;18.994;2023-09-19T09:30:53;1.63;;;0.73;;
55025;SDS011;40925;45.666;18.994;2023-09-19T09:33:19;4.13;;;1.50;;
55025;SDS011;40925;45.666;18.994;2023-09-19T09:38:18;2.53;;;0.90;;
55025;SDS011;40925;45.666;18.994;2023-09-19T09:40:48;2.00;;;0.88;;
55025;SDS011;40925;45.666;18.994;2023-09-19T09:43:27;1.95;;;0.75;;
55025;SDS011;40925;45.666;18.994;2023-09-19T09:46:08;1.95;;;0.90;;
55025;SDS011;40925;45.666;18.994;2023-09-19T09:52:05;1.30;;;0.70;;
55025;SDS011;40925;45.666;18.994;2023-09-19T09:54:32;2.17;;;0.55;;
55025;SDS011;40925;45.666;18.994;2023-09-19T10:02:35;1.63;;;0.70;;
55025;SDS011;40925;45.666;18.994;2023-09-19T10:05:16;1.98;;;0.80;;
55025;SDS011;40925;45.666;18.994;2023-09-19T10:07:49;1.50;;;0.90;;
55025;SDS011;40925;45.666;18.994;2023-09-19T10:10:33;2.17;;;0.77;;
55025;SDS011;40925;45.666;18.994;2023-09-19T10:13:06;1.98;;;0.65;;
55025;SDS011;40925;45.666;18.994;2023-09-19T10:15:33;1.45;;;0.80;;
55025;SDS011;40925;45.666;18.994;2023-09-19T10:18:01;1.65;;;0.68;;
55025;SDS011;40925;45.666;18.994;2023-09-19T10:20:30;1.00;;;0.70;;
55025;SDS011;40925;45.666;18.994;2023-09-19T10:23:06;1.80;;;0.75;;
55025;SDS011;40925;45.666;18.994;2023-09-19T10:28:05;1.77;;;0.70;;
55025;SDS011;40925;45.666;18.994;2023-09-19T10:30:56;1.30;;;0.60;;
55025;SDS011;40925;45.666;18.994;2023-09-19T10:33:23;3.22;;;0.90;;
55025;SDS011;40925;45.666;18.994;2023-09-19T10:35:55;2.80;;;0.75;;
55025;SDS011;40925;45.666;18.994;2023-09-19T10:38:26;3.20;;;0.65;;
55025;SDS011;40925;45.666;18.994;2023-09-19T10:40:54;2.22;;;0.77;;
55025;SDS011;40925;45.666;18.994;2023-09-19T10:43:20;1.10;;;0.68;;
55025;SDS011;40925;45.666;18.994;2023-09-19T10:45:48;2.63;;;0.70;;
55025;SDS011;40925;45.666;18.994;2023-09-19T10:48:17;2.50;;;0.70;;
55025;SDS011;40925;45.666;18.994;2023-09-19T10:51:05;2.03;;;1.00;;
55025;SDS011;40925;45.666;18.994;2023-09-19T10:53:45;2.35;;;1.30;;
55025;SDS011;40925;45.666;18.994;2023-09-19T10:56:23;3.00;;;0.90;;
55025;SDS011;40925;45.666;18.994;2023-09-19T10:58:53;2.35;;;0.70;;
55025;SDS011;40925;45.666;18.994;2023-09-19T11:04:29;2.17;;;0.88;;
55025;SDS011;40925;45.666;18.994;2023-09-19T11:07:14;2.85;;;0.68;;
55025;SDS011;40925;45.666;18.994;2023-09-19T11:09:47;1.63;;;0.70;;
55025;SDS011;40925;45.666;18.994;2023-09-19T11:15:01;4.88;;;1.60;;
55025;SDS011;40925;45.666;18.994;2023-09-19T11:17:36;2.40;;;1.10;;
55025;SDS011;40925;45.666;18.994;2023-09-19T11:30:43;2.42;;;0.77;;
55025;SDS011;40925;45.666;18.994;2023-09-19T11:36:02;1.10;;;0.60;;
55025;SDS011;40925;45.666;18.994;2023-09-19T11:43:51;2.15;;;0.75;;
55025;SDS011;40925;45.666;18.994;2023-09-19T11:46:26;1.92;;;0.73;;
55025;SDS011;40925;45.666;18.994;2023-09-19T11:48:53;2.35;;;0.90;;
55025;SDS011;40925;45.666;18.994;2023-09-19T11:51:22;4.35;;;1.90;;
55025;SDS011;40925;45.666;18.994;2023-09-19T11:53:55;5.53;;;2.45;;
55025;SDS011;40925;45.666;18.994;2023-09-19T11:56:28;2.72;;;1.55;;
55025;SDS011;40925;45.666;18.994;2023-09-19T11:58:56;1.20;;;0.68;;
55025;SDS011;40925;45.666;18.994;2023-09-19T12:01:30;3.35;;;1.00;;
55025;SDS011;40925;45.666;18.994;2023-09-19T12:03:59;3.55;;;0.93;;
55025;SDS011;40925;45.666;18.994;2023-09-19T12:06:28;2.17;;;1.15;;
55025;SDS011;40925;45.666;18.994;2023-09-19T12:09:12;1.40;;;0.70;;
55025;SDS011;40925;45.666;18.994;2023-09-19T12:11:42;1.35;;;0.80;;
55025;SDS011;40925;45.666;18.994;2023-09-19T12:14:12;2.75;;;0.80;;
55025;SDS011;40925;45.666;18.994;2023-09-19T12:16:54;2.17;;;1.20;;
55025;SDS011;40925;45.666;18.994;2023-09-19T12:19:21;2.00;;;0.90;;
55025;SDS011;40925;45.666;18.994;2023-09-19T12:21:55;1.83;;;0.90;;
55025;SDS011;40925;45.666;18.994;2023-09-19T12:24:24;2.33;;;0.82;;
55025;SDS011;40925;45.666;18.994;2023-09-19T12:26:54;1.77;;;0.90;;
55025;SDS011;40925;45.666;18.994;2023-09-19T12:31:57;1.40;;;0.77;;
55025;SDS011;40925;45.666;18.994;2023-09-19T12:34:24;2.20;;;0.70;;
55025;SDS011;40925;45.666;18.994;2023-09-19T12:37:12;2.35;;;0.73;;
55025;SDS011;40925;45.666;18.994;2023-09-19T12:39:52;1.88;;;0.90;;
55025;SDS011;40925;45.666;18.994;2023-09-19T12:42:24;1.63;;;0.75;;
55025;SDS011;40925;45.666;18.994;2023-09-19T12:44:58;1.35;;;0.70;;
55025;SDS011;40925;45.666;18.994;2023-09-19T12:47:26;5.25;;;1.15;;
55025;SDS011;40925;45.666;18.994;2023-09-19T12:50:13;1.30;;;0.73;;
55025;SDS011;40925;45.666;18.994;2023-09-19T12:52:49;1.95;;;0.90;;
55025;SDS011;40925;45.666;18.994;2023-09-19T12:55:19;3.60;;;0.80;;
55025;SDS011;40925;45.666;18.994;2023-09-19T12:57:59;1.33;;;0.75;;
55025;SDS011;40925;45.666;18.994;2023-09-19T13:00:37;1.33;;;0.75;;
55025;SDS011;40925;45.666;18.994;2023-09-19T13:05:59;3.58;;;0.90;;
55025;SDS011;40925;45.666;18.994;2023-09-19T13:08:33;1.77;;;0.80;;
55025;SDS011;40925;45.666;18.994;2023-09-19T13:13:32;1.77;;;0.90;;
55025;SDS011;40925;45.666;18.994;2023-09-19T13:16:01;1.15;;;0.70;;
55025;SDS011;40925;45.666;18.994;2023-09-19T13:18:29;1.60;;;0.80;;
55025;SDS011;40925;45.666;18.994;2023-09-19T13:21:09;1.08;;;0.70;;
55025;SDS011;40925;45.666;18.994;2023-09-19T13:23:47;1.65;;;0.80;;
55025;SDS011;40925;45.666;18.994;2023-09-19T13:26:18;1.77;;;0.90;;
55025;SDS011;40925;45.666;18.994;2023-09-19T13:28:44;2.53;;;0.85;;
55025;SDS011;40925;45.666;18.994;2023-09-19T13:31:13;2.47;;;0.90;;
55025;SDS011;40925;45.666;18.994;2023-09-19T13:33:48;1.40;;;0.80;;
55025;SDS011;40925;45.666;18.994;2023-09-19T13:36:15;1.83;;;0.80;;
55025;SDS011;40925;45.666;18.994;2023-09-19T13:38:41;1.30;;;0.70;;
55025;SDS011;40925;45.666;18.994;2023-09-19T13:41:08;3.05;;;0.80;;
55025;SDS011;40925;45.666;18.994;2023-09-19T13:43:35;1.40;;;0.90;;
55025;SDS011;40925;45.666;18.994;2023-09-19T13:46:05;1.25;;;0.80;;
55025;SDS011;40925;45.666;18.994;2023-09-19T13:48:37;2.75;;;0.88;;
55025;SDS011;40925;45.666;18.994;2023-09-19T13:51:03;1.85;;;0.90;;
55025;SDS011;40925;45.666;18.994;2023-09-19T13:53:29;2.42;;;0.80;;
55025;SDS011;40925;45.666;18.994;2023-09-19T13:55:56;1.63;;;0.80;;
55025;SDS011;40925;45.666;18.994;2023-09-19T13:58:22;1.52;;;0.82;;
55025;SDS011;40925;45.666;18.994;2023-09-19T14:00:49;1.58;;;0.80;;
55025;SDS011;40925;45.666;18.994;2023-09-19T14:03:15;1.73;;;0.90;;
55025;SDS011;40925;45.666;18.994;2023-09-19T14:05:40;6.63;;;1.42;;
55025;SDS011;40925;45.666;18.994;2023-09-19T14:08:07;1.05;;;0.70;;
55025;SDS011;40925;45.666;18.994;2023-09-19T14:10:33;1.75;;;0.82;;
55025;SDS011;40925;45.666;18.994;2023-09-19T14:13:00;1.17;;;0.70;;
55025;SDS011;40925;45.666;18.994;2023-09-19T14:15:27;1.67;;;0.80;;
55025;SDS011;40925;45.666;18.994;2023-09-19T14:17:59;1.85;;;0.77;;
55025;SDS011;40925;45.666;18.994;2023-09-19T14:20:27;1.75;;;0.90;;
55025;SDS011;40925;45.666;18.994;2023-09-19T14:22:54;1.75;;;1.00;;
55025;SDS011;40925;45.666;18.994;2023-09-19T14:25:20;1.50;;;0.80;;
55025;SDS011;40925;45.666;18.994;2023-09-19T14:27:46;1.98;;;1.10;;
55025;SDS011;40925;45.666;18.994;2023-09-19T14:30:13;3.83;;;1.27;;
55025;SDS011;40925;45.666;18.994;2023-09-19T14:32:40;1.90;;;1.00;;
55025;SDS011;40925;45.666;18.994;2023-09-19T14:35:06;1.58;;;0.75;;
55025;SDS011;40925;45.666;18.994;2023-09-19T14:37:34;2.63;;;1.10;;
55025;SDS011;40925;45.666;18.994;2023-09-19T14:40:00;1.45;;;0.82;;
55025;SDS011;40925;45.666;18.994;2023-09-19T14:42:32;1.55;;;0.90;;
55025;SDS011;40925;45.666;18.994;2023-09-19T14:44:58;2.13;;;0.90;;
55025;SDS011;40925;45.666;18.994;2023-09-19T14:47:24;3.25;;;0.70;;
55025;SDS011;40925;45.666;18.994;2023-09-19T14:49:52;1.42;;;0.63;;
55025;SDS011;40925;45.666;18.994;2023-09-19T14:52:18;2.13;;;0.90;;
55025;SDS011;40925;45.666;18.994;2023-09-19T14:54:44;1.35;;;0.70;;
55025;SDS011;40925;45.666;18.994;2023-09-19T14:57:10;3.15;;;0.70;;
55025;SDS011;40925;45.666;18.994;2023-09-19T14:59:36;2.22;;;0.98;;
55025;SDS011;40925;45.666;18.994;2023-09-19T15:02:02;2.92;;;1.30;;
55025;SDS011;40925;45.666;18.994;2023-09-19T15:04:31;2.10;;;1.23;;
55025;SDS011;40925;45.666;18.994;2023-09-19T15:06:58;1.20;;;0.60;;
55025;SDS011;40925;45.666;18.994;2023-09-19T15:09:24;1.42;;;0.80;;
55025;SDS011;40925;45.666;18.994;2023-09-19T15:11:53;1.67;;;0.90;;
55025;SDS011;40925;45.666;18.994;2023-09-19T15:14:20;2.20;;;0.98;;
55025;SDS011;40925;45.666;18.994;2023-09-19T15:16:50;2.22;;;0.80;;
55025;SDS011;40925;45.666;18.994;2023-09-19T15:19:16;2.28;;;0.93;;
55025;SDS011;40925;45.666;18.994;2023-09-19T15:21:42;2.05;;;0.98;;
55025;SDS011;40925;45.666;18.994;2023-09-19T15:24:09;1.20;;;0.80;;
55025;SDS011;40925;45.666;18.994;2023-09-19T15:26:37;1.20;;;0.70;;
55025;SDS011;40925;45.666;18.994;2023-09-19T15:29:05;1.35;;;0.73;;
55025;SDS011;40925;45.666;18.994;2023-09-19T15:31:31;1.80;;;0.90;;
55025;SDS011;40925;45.666;18.994;2023-09-19T15:33:57;2.90;;;1.08;;
55025;SDS011;40925;45.666;18.994;2023-09-19T15:36:26;1.88;;;1.02;;
55025;SDS011;40925;45.666;18.994;2023-09-19T15:39:02;2.15;;;0.90;;
55025;SDS011;40925;45.666;18.994;2023-09-19T15:41:34;2.03;;;0.80;;
55025;SDS011;40925;45.666;18.994;2023-09-19T15:44:10;2.03;;;0.80;;
55025;SDS011;40925;45.666;18.994;2023-09-19T15:46:36;1.95;;;0.90;;
55025;SDS011;40925;45.666;18.994;2023-09-19T15:49:02;4.45;;;1.33;;
55025;SDS011;40925;45.666;18.994;2023-09-19T15:51:28;1.38;;;0.80;;